Hazen, Nevada
Current Conditions -  °F | °C
As of 9:56 AM on Tuesday 21 Oct 2014 (Local Time) from KNFL Reporting Station
Scattered Clouds Scattered Clouds  
Wind Chill: 52°   Ceiling: Unl
Heat Index: 52°   Visibility: 10mi
Dew Point: 29°   Wind: 7mph
Humidity: 41%   Direction: 350°N
Pressure: 30.14"   Gusts: NA
Location:  39.5869°N, 119.152°W
Report Text: KNFL 211656Z 35006KT 10SM FEW065 FEW150 SCT250 11/M02 A3014 RMK AO2 SLP172 T01111017
Loading
Personal Weather Stations






























Interactive Weather Map
Tropical Storm Tracking
New forecast layout! Learn more

10-Day Weather Forecast

Advertisements
Track Severe Weather on mobile